Time;durP1;ratioP1;P1;durP2;ratioP2;P2;SDS_P1;SDS_P2;PMS_P1;PMS_P2;Temp;Humidity;BMP_temperature;BMP_pressure;BME280_temperature;BME280_humidity;BME280_pressure;Samples;Min_cycle;Max_cycle;Signal;HPM_P1;HPM_P2
2023/12/23 00:01:42;;;;;;;18.52;7.45;;;8.90;96.70;;;;;;6212242;23;20075;-63
2023/12/23 00:04:14;;;;;;;14.55;7.55;;;9.00;96.70;;;;;;6212320;23;20090;-63
2023/12/23 00:06:43;;;;;;;18.85;7.65;;;9.00;96.70;;;;;;6212205;23;20070;-63
2023/12/23 00:09:15;;;;;;;12.68;5.75;;;9.00;96.70;;;;;;6211895;23;20021;-63
2023/12/23 00:11:43;;;;;;;15.23;6.53;;;9.00;96.70;;;;;;6211819;23;20111;-63
2023/12/23 00:14:13;;;;;;;11.48;4.68;;;9.00;96.70;;;;;;6212408;23;20016;-63
2023/12/23 00:16:42;;;;;;;15.73;5.13;;;9.00;96.70;;;;;;6212248;23;20016;-64
2023/12/23 00:19:12;;;;;;;13.80;4.93;;;8.90;96.70;;;;;;6211826;23;20024;-63
2023/12/23 00:21:42;;;;;;;13.60;5.00;;;8.90;96.70;;;;;;6211703;23;20024;-63
2023/12/23 00:24:11;;;;;;;14.10;4.50;;;8.80;96.70;;;;;;6212438;23;20032;-63
2023/12/23 00:26:39;;;;;;;14.82;5.47;;;8.80;96.70;;;;;;6212160;23;20486;-63
2023/12/23 00:29:07;;;;;;;18.65;5.40;;;8.70;96.70;;;;;;6185918;23;20021;-63
2023/12/23 00:31:37;;;;;;;17.38;5.30;;;8.70;96.70;;;;;;6212048;23;20378;-63
2023/12/23 00:34:06;;;;;;;12.23;3.95;;;8.70;96.70;;;;;;6185083;23;20396;-63
2023/12/23 00:36:36;;;;;;;13.77;5.15;;;8.70;96.70;;;;;;6210500;23;20766;-63
2023/12/23 00:39:06;;;;;;;11.23;4.47;;;8.70;96.70;;;;;;6185781;23;20352;-63
2023/12/23 00:41:34;;;;;;;15.93;4.78;;;8.70;96.70;;;;;;6209648;23;20032;-63
2023/12/23 00:44:05;;;;;;;18.08;5.80;;;8.70;96.70;;;;;;6186156;23;20028;-63
2023/12/23 00:46:34;;;;;;;11.90;4.50;;;8.70;96.70;;;;;;6184920;23;20678;-63
2023/12/23 00:49:02;;;;;;;12.65;5.25;;;8.70;96.70;;;;;;6186020;23;20024;-63
2023/12/23 00:51:32;;;;;;;10.75;4.45;;;8.80;96.70;;;;;;6187422;23;20076;-63
2023/12/23 00:54:02;;;;;;;9.90;4.03;;;8.70;96.70;;;;;;6214379;23;20024;-63
2023/12/23 00:56:30;;;;;;;14.25;4.28;;;8.70;96.70;;;;;;6187410;23;20072;-63
2023/12/23 00:58:59;;;;;;;12.45;3.97;;;8.70;96.70;;;;;;6214105;23;20029;-63
2023/12/23 01:01:28;;;;;;;10.90;4.03;;;8.60;96.70;;;;;;6188128;23;20032;-63
2023/12/23 01:03:58;;;;;;;11.27;4.13;;;8.60;96.70;;;;;;6162967;23;20102;-63
2023/12/23 01:06:26;;;;;;;16.50;5.20;;;8.60;96.70;;;;;;6213783;23;20100;-63
2023/12/23 01:08:56;;;;;;;19.30;5.07;;;8.50;96.70;;;;;;6187761;23;20024;-63
2023/12/23 01:11:26;;;;;;;12.07;4.28;;;8.50;96.70;;;;;;6187168;23;20025;-63
2023/12/23 01:13:55;;;;;;;12.07;5.18;;;8.60;96.70;;;;;;6187293;23;20020;-63
2023/12/23 01:16:26;;;;;;;11.88;5.20;;;8.60;96.70;;;;;;6214114;23;20086;-63
2023/12/23 01:18:54;;;;;;;17.83;5.00;;;8.60;96.70;;;;;;6187080;23;20047;-63
2023/12/23 01:21:23;;;;;;;13.68;5.25;;;8.60;96.70;;;;;;6213726;23;20024;-63
2023/12/23 01:23:53;;;;;;;15.75;5.60;;;8.60;96.70;;;;;;6214158;23;20016;-63
2023/12/23 01:26:22;;;;;;;16.70;6.40;;;8.60;96.70;;;;;;6213443;23;20028;-63
2023/12/23 01:29:02;;;;;;;16.50;5.47;;;8.50;96.70;;;;;;6213769;23;20020;-63
2023/12/23 01:31:31;;;;;;;18.55;5.80;;;8.50;96.70;;;;;;6214172;23;20123;-63
2023/12/23 01:34:00;;;;;;;14.75;5.35;;;8.50;96.70;;;;;;6213979;23;20027;-63
2023/12/23 01:36:33;;;;;;;14.35;5.32;;;8.60;96.70;;;;;;6213548;23;20013;-63
2023/12/23 01:39:04;;;;;;;14.25;5.35;;;8.60;96.70;;;;;;6187488;23;20422;-63
2023/12/23 01:41:33;;;;;;;13.75;4.80;;;8.60;96.70;;;;;;6186649;23;20024;-62
2023/12/23 01:44:05;;;;;;;14.18;5.10;;;8.60;96.70;;;;;;6186717;23;20037;-63
2023/12/23 01:46:33;;;;;;;14.25;5.20;;;8.60;96.70;;;;;;6187455;23;20051;-63
2023/12/23 01:49:04;;;;;;;18.20;5.10;;;8.70;96.70;;;;;;6187444;23;20020;-63
2023/12/23 01:51:33;;;;;;;13.50;4.70;;;8.60;96.70;;;;;;6187929;23;20025;-63
2023/12/23 01:54:05;;;;;;;15.73;4.60;;;8.60;96.70;;;;;;6213869;23;20048;-63
2023/12/23 01:56:37;;;;;;;11.52;4.63;;;8.60;96.70;;;;;;6186184;23;20017;-63
2023/12/23 01:59:09;;;;;;;14.93;4.65;;;8.60;96.70;;;;;;6213188;23;20574;-63
2023/12/23 02:01:39;;;;;;;19.85;6.13;;;8.60;96.70;;;;;;6211972;23;20024;-62
2023/12/23 02:04:08;;;;;;;15.55;5.47;;;8.60;96.70;;;;;;6186457;23;20029;-63
2023/12/23 02:06:38;;;;;;;12.95;4.72;;;8.60;96.70;;;;;;6197532;23;20083;-63
2023/12/23 02:09:07;;;;;;;14.77;4.93;;;8.60;96.70;;;;;;6212989;23;20451;-63
2023/12/23 02:11:42;;;;;;;11.70;5.10;;;8.60;96.70;;;;;;6210763;23;20478;-63
2023/12/23 02:14:20;;;;;;;9.75;4.05;;;8.60;96.70;;;;;;6211475;23;20104;-63
2023/12/23 02:16:50;;;;;;;12.55;4.53;;;8.60;96.70;;;;;;6212868;23;20095;-63
2023/12/23 02:19:19;;;;;;;15.88;6.13;;;8.50;96.70;;;;;;6212265;23;20028;-63
2023/12/23 02:21:51;;;;;;;15.18;5.55;;;8.50;96.70;;;;;;6187054;23;20028;-63
2023/12/23 02:24:21;;;;;;;12.27;4.85;;;8.40;96.70;;;;;;6211981;23;20029;-63
2023/12/23 02:26:58;;;;;;;14.57;4.93;;;8.40;96.70;;;;;;6186755;23;20091;-63
2023/12/23 02:29:28;;;;;;;13.70;4.30;;;8.30;96.70;;;;;;6188508;23;20020;-63
2023/12/23 02:31:59;;;;;;;14.57;4.90;;;8.30;96.70;;;;;;6211213;23;20103;-63
2023/12/23 02:34:29;;;;;;;10.55;4.10;;;8.30;96.70;;;;;;6211555;23;20051;-63
2023/12/23 02:37:00;;;;;;;14.57;5.18;;;8.30;96.70;;;;;;6187086;23;20016;-64
2023/12/23 02:39:28;;;;;;;12.75;4.47;;;8.40;96.70;;;;;;6213142;23;20024;-63
2023/12/23 02:41:57;;;;;;;13.73;4.95;;;8.40;96.70;;;;;;6211503;23;20094;-63
2023/12/23 02:44:26;;;;;;;12.48;4.25;;;8.40;96.70;;;;;;6211134;23;20031;-63
2023/12/23 02:46:55;;;;;;;15.32;4.00;;;8.30;96.70;;;;;;6211256;23;20021;-63
2023/12/23 02:49:25;;;;;;;12.70;4.32;;;8.30;96.70;;;;;;6212711;23;20024;-63
2023/12/23 02:51:56;;;;;;;13.43;4.40;;;8.30;96.70;;;;;;6213274;23;20501;-63
2023/12/23 02:54:27;;;;;;;12.82;3.90;;;8.30;96.70;;;;;;6212649;23;20020;-63
2023/12/23 02:56:55;;;;;;;14.55;4.60;;;8.30;96.70;;;;;;6135543;23;20016;-63
2023/12/23 02:59:24;;;;;;;12.20;4.65;;;8.20;96.70;;;;;;6211734;23;20024;-63
2023/12/23 03:01:53;;;;;;;12.10;4.45;;;8.10;96.70;;;;;;6211274;23;20087;-63
2023/12/23 03:04:23;;;;;;;12.10;4.32;;;8.10;96.70;;;;;;6213296;23;20112;-63
2023/12/23 03:06:51;;;;;;;11.93;4.20;;;8.10;96.70;;;;;;6210507;23;20024;-63
2023/12/23 03:09:20;;;;;;;15.65;4.32;;;8.10;96.70;;;;;;6212791;23;20027;-63
2023/12/23 03:11:51;;;;;;;11.48;3.72;;;8.10;96.70;;;;;;6212784;23;20032;-63
2023/12/23 03:14:19;;;;;;;10.13;3.97;;;8.10;96.70;;;;;;6211710;23;20100;-63
2023/12/23 03:16:48;;;;;;;10.23;2.97;;;8.10;96.70;;;;;;6210682;23;20020;-63
2023/12/23 03:19:17;;;;;;;12.77;3.40;;;8.10;96.70;;;;;;6211315;23;20020;-63
2023/12/23 03:21:46;;;;;;;8.57;2.70;;;8.10;96.70;;;;;;6211674;23;20048;-63
2023/12/23 03:24:15;;;;;;;8.32;2.88;;;8.10;96.70;;;;;;6186084;23;20028;-63
2023/12/23 03:26:45;;;;;;;13.15;3.72;;;8.10;96.70;;;;;;6136094;23;20020;-63
2023/12/23 03:29:15;;;;;;;8.68;2.90;;;8.00;96.70;;;;;;6213131;23;20021;-63
2023/12/23 03:31:45;;;;;;;11.40;3.90;;;8.00;96.70;;;;;;6210643;23;20515;-63
2023/12/23 03:34:14;;;;;;;11.23;3.72;;;8.00;96.70;;;;;;6211164;23;20087;-63
2023/12/23 03:36:43;;;;;;;12.98;4.03;;;8.00;96.70;;;;;;6235841;23;20047;-63
2023/12/23 03:39:12;;;;;;;13.65;4.18;;;7.90;96.70;;;;;;6236764;23;20087;-63
2023/12/23 03:41:47;;;;;;;11.38;3.92;;;7.90;96.70;;;;;;6135473;23;20024;-62
2023/12/23 03:44:18;;;;;;;11.02;3.67;;;8.00;96.70;;;;;;6186514;23;20099;-63
2023/12/23 03:46:47;;;;;;;12.10;3.72;;;8.00;96.70;;;;;;6160464;23;20708;-63
2023/12/23 03:49:15;;;;;;;12.55;4.63;;;8.00;96.70;;;;;;6211239;23;20024;-63
2023/12/23 03:51:44;;;;;;;10.52;3.97;;;8.00;96.70;;;;;;6211055;23;20025;-63
2023/12/23 03:54:16;;;;;;;10.30;4.53;;;8.00;96.70;;;;;;6212078;23;20027;-63
2023/12/23 03:56:45;;;;;;;15.02;4.40;;;7.90;96.70;;;;;;6210487;23;20124;-63
2023/12/23 03:59:19;;;;;;;13.43;4.60;;;7.90;96.70;;;;;;6187635;23;20490;-63
2023/12/23 04:01:48;;;;;;;13.35;4.05;;;7.90;96.70;;;;;;6210453;23;20518;-63
2023/12/23 04:04:20;;;;;;;14.25;4.50;;;7.90;96.70;;;;;;6212843;23;20020;-63
2023/12/23 04:06:48;;;;;;;10.32;4.40;;;8.00;96.70;;;;;;6210439;23;20025;-63
2023/12/23 04:09:18;;;;;;;13.38;4.50;;;8.00;96.70;;;;;;6212425;23;20021;-63
2023/12/23 04:11:47;;;;;;;9.20;3.58;;;8.00;96.70;;;;;;6186415;23;20099;-63
2023/12/23 04:14:19;;;;;;;11.80;3.97;;;8.00;96.70;;;;;;6210589;23;20024;-63
2023/12/23 04:16:48;;;;;;;9.73;3.60;;;8.00;96.70;;;;;;6185938;23;20017;-62
2023/12/23 04:19:17;;;;;;;12.48;5.18;;;7.90;96.70;;;;;;6210991;23;20348;-63
2023/12/23 04:21:45;;;;;;;12.32;3.95;;;7.90;96.70;;;;;;6210600;23;20083;-63
2023/12/23 04:24:14;;;;;;;11.02;3.97;;;7.90;96.70;;;;;;6210283;23;20055;-63
2023/12/23 04:26:44;;;;;;;13.15;4.40;;;7.90;96.70;;;;;;6209793;23;20028;-63
2023/12/23 04:29:13;;;;;;;16.23;4.10;;;7.90;96.70;;;;;;6212470;23;20458;-63
2023/12/23 04:31:44;;;;;;;15.07;4.70;;;7.90;96.70;;;;;;6210612;23;20028;-63
2023/12/23 04:34:13;;;;;;;8.65;3.20;;;7.80;96.70;;;;;;6210242;23;20134;-63
2023/12/23 04:36:42;;;;;;;12.38;4.05;;;7.80;96.70;;;;;;6186347;23;20070;-63
2023/12/23 04:39:12;;;;;;;15.32;4.38;;;7.80;96.70;;;;;;6185824;23;20028;-63
2023/12/23 04:41:46;;;;;;;15.05;4.28;;;7.80;96.70;;;;;;6209920;23;20025;-63
2023/12/23 04:44:17;;;;;;;11.68;4.22;;;7.80;96.70;;;;;;6211008;23;20103;-63
2023/12/23 04:46:50;;;;;;;12.32;3.95;;;7.80;96.70;;;;;;6212240;23;20035;-63
2023/12/23 04:49:19;;;;;;;9.13;3.50;;;7.80;96.70;;;;;;6210704;23;20025;-63
2023/12/23 04:51:48;;;;;;;12.02;3.90;;;7.90;96.70;;;;;;6161752;23;20771;-63
2023/12/23 04:54:17;;;;;;;10.60;3.55;;;7.80;96.70;;;;;;6211253;23;20021;-63
2023/12/23 04:56:46;;;;;;;12.00;3.78;;;7.80;96.70;;;;;;6211496;23;20021;-63
2023/12/23 04:59:15;;;;;;;8.52;3.50;;;7.80;96.70;;;;;;6186972;23;20020;-63
2023/12/23 05:01:44;;;;;;;11.50;3.92;;;7.90;96.70;;;;;;6210354;23;20115;-63
2023/12/23 05:04:16;;;;;;;15.00;3.92;;;7.90;96.70;;;;;;6236942;23;20094;-63
2023/12/23 05:06:47;;;;;;;11.90;3.92;;;7.90;96.70;;;;;;6211441;23;20016;-63
2023/12/23 05:09:16;;;;;;;14.88;3.90;;;7.90;96.70;;;;;;6211597;23;20157;-63
2023/12/23 05:11:44;;;;;;;13.25;4.72;;;7.90;96.70;;;;;;6212326;23;20359;-63
2023/12/23 05:14:14;;;;;;;14.88;6.93;;;7.90;96.70;;;;;;6212851;23;20024;-63
2023/12/23 05:16:43;;;;;;;17.50;6.18;;;7.90;96.70;;;;;;6211385;23;20031;-62
2023/12/23 05:19:12;;;;;;;12.13;4.38;;;7.90;96.70;;;;;;6210418;23;20047;-63
2023/12/23 05:21:46;;;;;;;11.82;4.80;;;7.90;96.70;;;;;;6210876;23;20040;-63
2023/12/23 05:24:14;;;;;;;14.70;5.30;;;7.90;96.70;;;;;;6211153;23;20036;-63
2023/12/23 05:26:43;;;;;;;10.57;4.40;;;7.90;96.70;;;;;;6209708;23;20043;-63
2023/12/23 05:29:12;;;;;;;12.00;3.42;;;7.90;96.70;;;;;;6212926;23;20044;-63
2023/12/23 05:31:44;;;;;;;16.15;4.85;;;7.90;96.70;;;;;;6210719;23;20032;-63
2023/12/23 05:34:13;;;;;;;9.75;4.00;;;8.00;96.70;;;;;;6211864;23;20020;-63
2023/12/23 05:36:45;;;;;;;11.30;3.90;;;8.00;96.70;;;;;;6212315;23;20083;-63
2023/12/23 05:39:14;;;;;;;10.63;4.32;;;8.00;96.70;;;;;;6211840;23;20445;-63
2023/12/23 05:41:44;;;;;;;9.45;3.25;;;8.10;96.70;;;;;;6211977;23;20020;-63
2023/12/23 05:44:12;;;;;;;12.88;4.13;;;8.10;96.70;;;;;;6213211;23;20025;-63
2023/12/23 05:46:41;;;;;;;10.65;3.90;;;7.90;96.70;;;;;;6211519;23;20013;-63
2023/12/23 05:49:10;;;;;;;13.10;4.40;;;7.90;96.70;;;;;;6213709;23;20400;-63
2023/12/23 05:51:40;;;;;;;10.02;3.60;;;7.90;96.70;;;;;;6213822;23;20116;-63
2023/12/23 05:54:12;;;;;;;12.52;4.18;;;7.90;96.70;;;;;;6214294;23;20856;-63
2023/12/23 05:56:40;;;;;;;7.90;3.45;;;8.00;96.70;;;;;;6213677;23;20084;-63
2023/12/23 05:59:08;;;;;;;12.98;3.58;;;8.00;96.70;;;;;;6212331;23;20024;-63
2023/12/23 06:01:37;;;;;;;13.15;5.00;;;8.00;96.70;;;;;;6212146;23;20024;-63
2023/12/23 06:04:06;;;;;;;11.05;3.75;;;8.00;96.70;;;;;;6213338;23;20499;-63
2023/12/23 06:06:35;;;;;;;11.60;4.25;;;8.00;96.70;;;;;;6215901;23;20096;-63
2023/12/23 06:09:05;;;;;;;16.15;5.32;;;8.00;96.70;;;;;;6187646;23;20648;-63
2023/12/23 06:11:37;;;;;;;8.50;3.60;;;8.00;96.70;;;;;;6212778;23;20463;-63
2023/12/23 06:14:06;;;;;;;11.02;3.63;;;7.90;96.70;;;;;;6187060;23;20107;-63
2023/12/23 06:16:39;;;;;;;9.38;3.45;;;8.00;96.70;;;;;;6187223;23;20013;-63
2023/12/23 06:19:08;;;;;;;12.27;4.05;;;8.00;96.70;;;;;;6213796;23;20617;-63
2023/12/23 06:21:47;;;;;;;11.25;3.13;;;8.00;96.70;;;;;;6213547;23;20021;-63
2023/12/23 06:24:16;;;;;;;11.15;4.13;;;8.00;96.70;;;;;;6187952;23;20023;-63
2023/12/23 06:26:47;;;;;;;8.77;3.75;;;8.00;96.70;;;;;;6213458;23;20043;-63
2023/12/23 06:29:16;;;;;;;7.75;3.33;;;8.00;96.70;;;;;;6214830;23;20023;-63
2023/12/23 06:31:45;;;;;;;8.68;2.90;;;7.90;96.70;;;;;;6212864;23;20108;-62
2023/12/23 06:34:24;;;;;;;6.85;2.95;;;7.90;96.70;;;;;;6214853;23;20020;-64
2023/12/23 06:36:53;;;;;;;10.95;3.55;;;7.80;96.70;;;;;;6213994;23;20037;-63
2023/12/23 06:39:22;;;;;;;11.88;4.13;;;7.90;96.70;;;;;;6186839;23;20024;-63
2023/12/23 06:41:57;;;;;;;14.18;4.05;;;7.80;96.70;;;;;;6212732;23;20261;-63
2023/12/23 06:44:25;;;;;;;11.60;3.80;;;7.80;96.70;;;;;;6213322;23;20027;-63
2023/12/23 06:46:53;;;;;;;11.77;4.53;;;7.70;96.70;;;;;;6186767;23;20523;-63
2023/12/23 06:49:24;;;;;;;10.38;3.20;;;7.70;96.70;;;;;;6213457;23;20021;-63
2023/12/23 06:51:53;;;;;;;9.88;3.78;;;7.70;96.70;;;;;;6187138;23;20020;-63
2023/12/23 06:54:22;;;;;;;15.35;4.03;;;7.70;96.70;;;;;;6212802;23;20021;-63
2023/12/23 06:56:50;;;;;;;7.97;3.55;;;7.70;96.70;;;;;;6211906;23;20079;-63
2023/12/23 06:59:21;;;;;;;10.45;3.80;;;7.70;96.70;;;;;;6211524;23;20040;-63
2023/12/23 07:02:09;;;;;;;13.73;4.00;;;7.60;96.70;;;;;;6184962;23;20024;-63
2023/12/23 07:04:39;;;;;;;12.65;4.32;;;7.60;96.70;;;;;;6212087;23;20036;-63
2023/12/23 07:07:10;;;;;;;12.77;5.63;;;7.60;96.70;;;;;;6204012;23;20023;-63
2023/12/23 07:09:38;;;;;;;14.65;7.18;;;7.60;96.70;;;;;;6242216;23;20082;-63
2023/12/23 07:12:08;;;;;;;15.35;6.75;;;7.50;96.70;;;;;;6241797;23;20036;-63
2023/12/23 07:14:38;;;;;;;13.57;6.47;;;7.50;96.70;;;;;;6241906;23;20024;-62
2023/12/23 07:17:07;;;;;;;12.93;4.60;;;7.50;96.70;;;;;;6241346;23;20020;-63
2023/12/23 07:19:35;;;;;;;11.00;4.63;;;7.50;96.70;;;;;;6241859;23;20016;-64
2023/12/23 07:22:05;;;;;;;11.57;4.30;;;7.40;96.70;;;;;;6217499;23;20103;-63
2023/12/23 07:24:33;;;;;;;11.80;4.45;;;7.40;96.70;;;;;;6243380;22;20047;-63
2023/12/23 07:27:04;;;;;;;12.75;4.32;;;7.40;96.70;;;;;;6216220;23;20020;-63
2023/12/23 07:29:33;;;;;;;13.55;4.90;;;7.50;96.70;;;;;;6218303;23;20528;-63
2023/12/23 07:32:04;;;;;;;11.77;4.20;;;7.50;96.70;;;;;;6217223;23;20070;-63
2023/12/23 07:34:32;;;;;;;13.40;5.05;;;7.50;96.70;;;;;;6244714;23;20036;-63
2023/12/23 07:37:00;;;;;;;14.05;4.65;;;7.50;96.70;;;;;;6242461;23;20443;-62
2023/12/23 07:39:29;;;;;;;14.88;4.07;;;7.50;96.70;;;;;;6244027;23;20090;-63
2023/12/23 07:41:59;;;;;;;11.18;4.00;;;7.50;96.70;;;;;;6216882;23;20020;-62
2023/12/23 07:44:27;;;;;;;13.77;3.88;;;7.60;96.70;;;;;;6243712;23;20016;-63
2023/12/23 07:46:57;;;;;;;10.98;3.70;;;7.60;96.70;;;;;;6243898;23;20122;-62
2023/12/23 07:49:27;;;;;;;11.40;3.65;;;7.60;96.70;;;;;;6244277;23;20027;-63
2023/12/23 07:51:55;;;;;;;13.60;5.68;;;7.70;96.70;;;;;;6243621;23;20067;-63
2023/12/23 07:54:25;;;;;;;15.13;4.82;;;7.70;96.70;;;;;;6244238;23;20034;-63
2023/12/23 07:56:55;;;;;;;12.23;4.32;;;7.70;96.70;;;;;;6243688;23;20081;-62
2023/12/23 07:59:23;;;;;;;10.48;4.30;;;7.80;96.70;;;;;;6243187;22;20300;-63
2023/12/23 08:01:52;;;;;;;10.00;3.67;;;7.70;96.70;;;;;;6216810;23;20020;-62
2023/12/23 08:04:20;;;;;;;9.73;3.78;;;7.80;96.70;;;;;;6244067;23;20036;-63
2023/12/23 08:06:51;;;;;;;12.05;3.83;;;7.80;96.70;;;;;;6210918;23;20031;-62
2023/12/23 08:09:20;;;;;;;11.88;4.47;;;7.80;96.70;;;;;;6213305;23;20024;-63
2023/12/23 08:11:49;;;;;;;9.60;3.88;;;7.90;96.70;;;;;;6212857;23;20529;-63
2023/12/23 08:14:17;;;;;;;10.43;3.90;;;7.90;96.70;;;;;;6213599;23;20539;-63
2023/12/23 08:16:47;;;;;;;9.60;4.20;;;7.90;96.70;;;;;;6210359;23;20325;-63
2023/12/23 08:19:15;;;;;;;11.23;3.85;;;7.90;96.70;;;;;;6213071;23;20017;-63
2023/12/23 08:21:50;;;;;;;10.25;3.67;;;7.90;96.70;;;;;;6213244;23;20051;-63
2023/12/23 08:24:18;;;;;;;11.70;4.72;;;8.00;96.70;;;;;;6213102;23;20618;-63
2023/12/23 08:26:49;;;;;;;10.90;4.30;;;7.90;96.70;;;;;;6212642;23;20028;-63
2023/12/23 08:29:18;;;;;;;9.32;4.55;;;8.00;96.70;;;;;;6213497;23;20460;-63
2023/12/23 08:31:46;;;;;;;9.18;3.58;;;8.00;96.70;;;;;;6212261;23;20491;-62
2023/12/23 08:34:15;;;;;;;14.80;4.65;;;7.90;96.70;;;;;;6213157;23;20024;-64
2023/12/23 08:36:46;;;;;;;13.93;5.75;;;7.90;96.70;;;;;;6159018;23;20050;-63
2023/12/23 08:39:16;;;;;;;12.10;5.03;;;8.00;96.70;;;;;;6211168;23;20048;-63
2023/12/23 08:41:44;;;;;;;13.07;4.30;;;7.90;96.70;;;;;;6210504;23;20095;-63
2023/12/23 08:44:13;;;;;;;12.00;5.32;;;8.00;96.70;;;;;;6208916;23;20349;-63
2023/12/23 08:46:41;;;;;;;13.77;5.03;;;8.10;96.70;;;;;;6208913;23;20025;-63
2023/12/23 08:49:10;;;;;;;11.13;4.63;;;8.10;96.70;;;;;;6209801;23;20043;-64
2023/12/23 08:51:38;;;;;;;10.73;4.65;;;8.20;96.70;;;;;;6210310;23;20020;-64
2023/12/23 08:54:06;;;;;;;10.88;4.15;;;8.20;96.70;;;;;;6210906;23;20024;-64
2023/12/23 08:56:37;;;;;;;13.63;5.00;;;8.20;96.70;;;;;;6210807;23;20482;-64
2023/12/23 08:59:05;;;;;;;12.73;5.35;;;8.30;96.70;;;;;;6211144;23;20395;-64
2023/12/23 09:01:33;;;;;;;47.00;28.83;;;8.40;96.70;;;;;;6211110;23;20025;-64
2023/12/23 09:04:03;;;;;;;50.85;27.73;;;8.40;96.70;;;;;;6210521;23;20083;-64
2023/12/23 09:06:31;;;;;;;22.17;10.82;;;8.50;96.70;;;;;;6210450;23;20016;-63
2023/12/23 09:09:01;;;;;;;21.13;9.80;;;8.40;96.70;;;;;;6210758;23;20013;-65
2023/12/23 09:11:29;;;;;;;15.63;8.77;;;8.40;96.70;;;;;;6210671;23;20031;-64
2023/12/23 09:13:59;;;;;;;20.83;9.13;;;8.50;96.70;;;;;;6212365;23;20115;-65
2023/12/23 09:16:28;;;;;;;20.77;11.55;;;8.50;96.70;;;;;;6185547;23;20027;-64
2023/12/23 09:18:57;;;;;;;18.05;8.50;;;8.60;96.70;;;;;;6212427;23;20013;-64
2023/12/23 09:21:26;;;;;;;14.73;6.93;;;8.70;96.70;;;;;;6186096;23;20328;-65
2023/12/23 09:23:54;;;;;;;15.95;7.57;;;8.80;96.70;;;;;;6212895;23;20033;-64
2023/12/23 09:26:24;;;;;;;18.33;7.70;;;8.90;96.70;;;;;;6211786;23;20024;-64
2023/12/23 09:28:53;;;;;;;15.65;8.60;;;9.00;96.70;;;;;;6212539;23;20016;-65
2023/12/23 09:31:26;;;;;;;14.13;7.45;;;9.00;96.70;;;;;;6186575;23;20028;-64
2023/12/23 09:33:54;;;;;;;14.43;6.63;;;9.10;96.70;;;;;;6185864;23;20035;-62
2023/12/23 09:36:24;;;;;;;18.67;6.55;;;9.20;96.70;;;;;;6210457;23;20020;-63
2023/12/23 09:38:52;;;;;;;14.40;6.68;;;9.30;96.70;;;;;;6161131;23;20094;-62
2023/12/23 09:41:21;;;;;;;15.18;6.18;;;9.40;96.70;;;;;;6212148;23;20452;-66
2023/12/23 09:43:52;;;;;;;15.40;6.40;;;9.60;96.70;;;;;;6211411;23;20024;-65
2023/12/23 09:46:20;;;;;;;11.90;5.13;;;9.70;96.70;;;;;;6185365;23;20020;-64
2023/12/23 09:48:50;;;;;;;17.70;7.72;;;9.70;96.70;;;;;;6185611;23;20040;-64
2023/12/23 09:51:23;;;;;;;15.63;8.00;;;9.80;96.70;;;;;;6183545;23;20467;-64
2023/12/23 09:53:56;;;;;;;17.75;7.30;;;9.90;96.70;;;;;;6185891;23;20570;-65
2023/12/23 09:56:27;;;;;;;20.83;11.57;;;9.90;96.70;;;;;;6184892;23;20032;-63
2023/12/23 09:58:56;;;;;;;23.05;10.02;;;10.10;96.70;;;;;;6212020;23;20119;-64
2023/12/23 10:01:24;;;;;;;19.08;7.97;;;10.20;96.70;;;;;;6184873;23;20039;-64
2023/12/23 10:03:55;;;;;;;15.02;7.38;;;10.40;96.70;;;;;;6211282;23;20075;-64
2023/12/23 10:06:23;;;;;;;17.00;7.60;;;10.50;96.70;;;;;;6210978;23;20020;-64
2023/12/23 10:08:51;;;;;;;13.13;6.40;;;10.70;96.70;;;;;;6211944;23;20016;-65
2023/12/23 10:11:20;;;;;;;18.45;7.07;;;10.70;96.70;;;;;;6211323;23;20035;-64
2023/12/23 10:13:48;;;;;;;24.52;8.77;;;10.80;96.70;;;;;;6211707;23;20021;-64
2023/12/23 10:16:17;;;;;;;18.45;7.55;;;10.90;96.70;;;;;;6212383;23;20021;-65
2023/12/23 10:18:46;;;;;;;19.67;9.48;;;11.00;96.70;;;;;;6211909;23;20063;-65
2023/12/23 10:21:17;;;;;;;21.02;10.02;;;11.10;96.70;;;;;;6184821;23;20035;-65
2023/12/23 10:23:46;;;;;;;18.20;9.57;;;11.30;96.70;;;;;;6210975;23;20524;-65
2023/12/23 10:26:15;;;;;;;20.58;10.20;;;11.40;96.70;;;;;;6211327;23;20017;-65
2023/12/23 10:28:48;;;;;;;17.17;10.35;;;11.50;96.70;;;;;;6211473;23;20702;-66
2023/12/23 10:31:17;;;;;;;22.02;10.75;;;11.70;96.70;;;;;;6211504;23;20081;-66
2023/12/23 10:33:53;;;;;;;34.55;20.35;;;11.80;96.70;;;;;;6211249;23;20079;-65
2023/12/23 10:36:26;;;;;;;21.33;13.30;;;12.00;96.70;;;;;;6184695;23;20055;-64
2023/12/23 10:38:58;;;;;;;22.85;10.93;;;11.90;96.70;;;;;;6211390;23;20031;-64
2023/12/23 10:41:37;;;;;;;20.58;10.60;;;11.80;96.70;;;;;;6210434;23;20027;-64
2023/12/23 10:44:07;;;;;;;20.35;10.55;;;11.80;96.70;;;;;;6184851;23;20020;-64
2023/12/23 10:46:36;;;;;;;16.52;9.85;;;11.90;96.70;;;;;;6210802;23;20020;-64
2023/12/23 10:49:07;;;;;;;19.88;10.73;;;12.00;96.70;;;;;;6184358;23;20434;-64
2023/12/23 10:51:38;;;;;;;15.90;9.35;;;12.20;96.70;;;;;;6210828;23;20020;-64
2023/12/23 10:54:11;;;;;;;18.42;9.70;;;12.20;96.70;;;;;;6184671;23;20017;-64
2023/12/23 10:56:40;;;;;;;18.17;8.82;;;12.30;96.70;;;;;;6184255;23;20020;-64
2023/12/23 10:59:10;;;;;;;17.27;9.45;;;12.40;96.70;;;;;;6211256;23;20022;-64
2023/12/23 11:01:41;;;;;;;16.77;7.90;;;12.40;96.70;;;;;;6211215;23;20020;-64
2023/12/23 11:04:10;;;;;;;14.77;7.78;;;12.50;96.70;;;;;;6184675;23;20021;-65
2023/12/23 11:06:44;;;;;;;16.08;7.82;;;12.60;96.70;;;;;;6191769;23;20107;-65
2023/12/23 11:09:14;;;;;;;15.10;7.05;;;12.60;96.70;;;;;;6211036;23;20012;-65
2023/12/23 11:11:45;;;;;;;16.98;7.30;;;12.60;96.70;;;;;;6185359;23;20024;-65
2023/12/23 11:14:14;;;;;;;18.67;7.18;;;12.50;96.70;;;;;;6211320;23;20029;-63
2023/12/23 11:17:31;;;;;;;17.77;7.30;;;12.50;96.70;;;;;;6209585;23;20024;-64
2023/12/23 11:28:25;;;;;;;14.13;6.63;;;12.60;96.70;;;;;;6147695;23;20020;-63
2023/12/23 11:31:09;;;;;;;17.05;7.55;;;12.50;96.70;;;;;;6147617;23;20033;-63
2023/12/23 11:34:20;;;;;;;15.30;6.60;;;12.40;96.70;;;;;;6133946;23;20082;-63
2023/12/23 11:37:08;;;;;;;16.95;6.80;;;12.50;96.70;;;;;;6210579;23;20020;-63
2023/12/23 11:40:41;;;;;;;16.00;7.47;;;12.50;96.70;;;;;;6145883;23;20371;-64
2023/12/23 11:43:11;;;;;;;17.88;7.10;;;12.50;96.70;;;;;;6210873;23;20407;-66
2023/12/23 11:46:06;;;;;;;23.63;11.65;;;12.60;96.70;;;;;;6210820;23;20016;-64
2023/12/23 11:56:28;;;;;;;19.00;5.43;;;12.70;96.70;;;;;;6107906;23;20456;-65
2023/12/23 11:59:01;;;;;;;14.85;5.07;;;12.90;96.70;;;;;;6210999;23;20083;-65
2023/12/23 12:04:44;;;;;;;14.85;3.20;;;13.20;96.70;;;;;;6211039;23;20090;-64
2023/12/23 12:07:25;;;;;;;21.20;3.17;;;13.70;96.70;;;;;;6212035;23;20100;-66
2023/12/23 12:10:00;;;;;;;15.70;2.65;;;14.10;96.70;;;;;;6211168;23;20023;-66
2023/12/23 12:12:29;;;;;;;21.38;3.28;;;14.40;96.70;;;;;;6210594;23;20020;-65
2023/12/23 12:14:59;;;;;;;24.25;3.67;;;14.50;96.70;;;;;;6211124;23;20023;-65
2023/12/23 12:17:28;;;;;;;13.25;2.92;;;14.60;96.70;;;;;;6210915;23;20021;-65
2023/12/23 12:19:56;;;;;;;18.05;3.03;;;14.70;96.70;;;;;;6211435;23;20024;-66
2023/12/23 12:22:25;;;;;;;16.20;3.22;;;14.70;96.70;;;;;;6185472;23;20024;-67
2023/12/23 12:24:53;;;;;;;13.73;3.08;;;14.70;96.70;;;;;;6185363;23;20367;-67
2023/12/23 12:27:22;;;;;;;16.88;2.85;;;14.70;96.70;;;;;;6177873;23;20032;-64
2023/12/23 12:29:53;;;;;;;19.70;2.85;;;14.70;96.70;;;;;;6104901;23;20116;-67
2023/12/23 12:32:24;;;;;;;14.55;2.80;;;14.70;96.70;;;;;;6177500;23;20044;-66
2023/12/23 12:35:06;;;;;;;16.70;3.33;;;14.70;96.70;;;;;;6177197;23;20025;-68
2023/12/23 12:37:34;;;;;;;14.25;2.80;;;14.80;96.70;;;;;;6146817;23;20079;-67
2023/12/23 12:40:03;;;;;;;17.92;4.82;;;14.90;96.70;;;;;;6152129;23;20131;-68
2023/12/23 12:42:35;;;;;;;27.92;9.40;;;15.10;96.70;;;;;;6177360;23;20024;-66
2023/12/23 12:45:06;;;;;;;18.15;4.90;;;15.30;96.70;;;;;;6178192;23;20033;-66
2023/12/23 12:47:41;;;;;;;19.63;4.75;;;15.50;96.70;;;;;;6177342;23;20048;-67
2023/12/23 12:50:10;;;;;;;18.85;3.10;;;15.60;96.70;;;;;;6176797;23;20768;-66
2023/12/23 12:52:39;;;;;;;17.10;3.55;;;15.70;96.70;;;;;;6177619;23;20091;-66
2023/12/23 12:55:08;;;;;;;14.60;3.45;;;15.70;96.70;;;;;;6177347;23;20104;-68
2023/12/23 12:57:37;;;;;;;14.38;3.00;;;15.80;96.70;;;;;;6158137;23;20039;-68
2023/12/23 13:00:07;;;;;;;14.35;2.65;;;15.80;96.70;;;;;;6211354;23;20168;-65
2023/12/23 13:02:37;;;;;;;14.98;2.90;;;15.90;96.70;;;;;;6159756;23;20024;-66
2023/12/23 13:05:06;;;;;;;16.33;2.78;;;15.90;96.70;;;;;;6210331;23;20032;-69
2023/12/23 13:07:34;;;;;;;15.63;3.63;;;15.90;96.70;;;;;;6212008;23;20043;-68
2023/12/23 13:10:04;;;;;;;17.23;3.10;;;16.00;96.70;;;;;;6185333;23;20103;-68
2023/12/23 13:12:32;;;;;;;13.18;2.67;;;16.10;96.70;;;;;;6185954;23;20125;-68
2023/12/23 13:15:02;;;;;;;16.63;2.60;;;16.10;96.70;;;;;;6186073;23;20455;-67
2023/12/23 13:17:30;;;;;;;16.27;2.70;;;16.10;96.70;;;;;;6186005;23;20099;-69
2023/12/23 13:20:00;;;;;;;15.07;2.60;;;16.00;96.70;;;;;;6209726;23;20332;-67
2023/12/23 13:22:29;;;;;;;18.65;2.60;;;16.00;96.70;;;;;;6110806;23;20024;-65